Time;durP1;ratioP1;P1;durP2;ratioP2;P2;SDS_P1;SDS_P2;PMS_P1;PMS_P2;Temp;Humidity;BMP_temperature;BMP_pressure;BME280_temperature;BME280_humidity;BME280_pressure;Samples;Min_cycle;Max_cycle;Signal;HPM_P1;HPM_P2
2022/07/15 00:01:12;;;;;;;5.07;3.45;;;20.70;72.20;;;;;;5033478;28;20450;-72
2022/07/15 00:03:44;;;;;;;4.95;3.30;;;20.60;72.40;;;;;;5010131;28;20127;-72
2022/07/15 00:06:16;;;;;;;5.25;3.42;;;20.60;72.90;;;;;;5009980;28;20121;-72
2022/07/15 00:08:48;;;;;;;7.47;3.35;;;20.50;72.90;;;;;;5032703;28;20501;-72
2022/07/15 00:11:19;;;;;;;5.38;3.38;;;20.50;73.00;;;;;;5015466;28;20052;-72
2022/07/15 00:13:51;;;;;;;4.20;3.35;;;20.50;73.10;;;;;;5008729;28;20129;-72
2022/07/15 00:16:23;;;;;;;4.22;3.28;;;20.50;73.10;;;;;;5012150;28;20044;-72
2022/07/15 00:18:54;;;;;;;6.78;3.22;;;20.50;73.10;;;;;;5020834;28;20049;-72
2022/07/15 00:21:26;;;;;;;4.93;3.35;;;20.40;73.20;;;;;;5030004;28;20060;-72
2022/07/15 00:23:59;;;;;;;4.32;2.97;;;20.40;73.20;;;;;;5017058;28;20061;-72
2022/07/15 00:26:30;;;;;;;3.30;2.85;;;20.40;74.20;;;;;;5007341;28;20052;-72
2022/07/15 00:28:57;;;;;;;6.13;3.25;;;20.30;75.10;;;;;;5004528;28;20053;-72
2022/07/15 00:31:29;;;;;;;6.60;3.03;;;20.30;75.50;;;;;;5029329;28;20045;-72
2022/07/15 00:34:01;;;;;;;6.10;3.40;;;20.20;75.60;;;;;;5012482;28;20045;-72
2022/07/15 00:36:28;;;;;;;5.10;3.28;;;20.20;76.20;;;;;;5031648;28;20033;-72
2022/07/15 00:39:00;;;;;;;6.75;3.00;;;20.10;76.90;;;;;;5032875;28;20044;-72
2022/07/15 00:41:39;;;;;;;7.38;3.22;;;20.00;77.60;;;;;;5029154;28;20390;-72
2022/07/15 00:44:12;;;;;;;4.47;3.17;;;19.90;78.10;;;;;;5031046;28;20124;-72
2022/07/15 00:46:43;;;;;;;6.25;4.30;;;19.90;78.50;;;;;;5013446;28;20450;-72
2022/07/15 00:49:15;;;;;;;3.63;3.22;;;19.80;78.60;;;;;;5031387;28;20049;-72
2022/07/15 00:51:50;;;;;;;4.00;2.83;;;19.70;79.30;;;;;;5028766;28;20385;-72
2022/07/15 00:54:25;;;;;;;4.47;3.50;;;19.70;79.30;;;;;;5027010;28;20063;-72
2022/07/15 00:56:58;;;;;;;3.78;3.00;;;19.60;80.30;;;;;;5004079;28;20422;-73
2022/07/15 00:59:32;;;;;;;3.65;3.30;;;19.40;81.40;;;;;;5021708;28;20046;-72
2022/07/15 01:02:05;;;;;;;3.40;3.10;;;19.40;80.40;;;;;;5017548;28;20050;-72
2022/07/15 01:04:38;;;;;;;3.97;3.00;;;19.40;80.20;;;;;;5025031;28;20059;-72
2022/07/15 01:07:10;;;;;;;4.20;2.95;;;19.40;79.70;;;;;;5009495;28;20501;-72
2022/07/15 01:09:37;;;;;;;4.88;3.50;;;19.40;80.00;;;;;;5007987;28;20046;-72
2022/07/15 01:12:09;;;;;;;4.80;3.20;;;19.50;80.00;;;;;;5025152;28;20728;-72
2022/07/15 01:14:41;;;;;;;7.68;3.17;;;19.40;80.70;;;;;;5005843;28;20397;-72
2022/07/15 01:17:13;;;;;;;4.20;3.80;;;19.40;80.40;;;;;;5029663;28;20112;-72
2022/07/15 01:19:45;;;;;;;3.92;3.30;;;19.40;81.10;;;;;;5028049;28;20120;-72
2022/07/15 01:22:18;;;;;;;5.20;3.40;;;19.30;81.00;;;;;;5013037;28;20049;-72
2022/07/15 01:24:50;;;;;;;5.20;2.95;;;19.30;81.20;;;;;;5023717;28;20061;-72
2022/07/15 01:27:20;;;;;;;3.42;2.92;;;19.30;81.40;;;;;;5024170;28;20037;-72
2022/07/15 01:29:52;;;;;;;3.45;2.95;;;19.30;81.90;;;;;;5015362;28;20046;-72
2022/07/15 01:32:26;;;;;;;5.20;2.83;;;19.20;81.20;;;;;;5031238;28;20041;-72
2022/07/15 01:34:58;;;;;;;4.85;3.20;;;19.20;80.70;;;;;;5017618;28;20041;-72
2022/07/15 01:37:31;;;;;;;3.38;2.80;;;19.20;80.30;;;;;;5009945;28;20046;-72
2022/07/15 01:40:05;;;;;;;5.40;2.90;;;19.20;79.90;;;;;;5029167;28;20038;-72
2022/07/15 01:42:38;;;;;;;7.03;3.35;;;19.20;79.90;;;;;;5010596;28;20523;-72
2022/07/15 01:45:12;;;;;;;3.85;3.28;;;19.20;79.40;;;;;;5010568;28;20113;-72
2022/07/15 01:47:49;;;;;;;4.50;3.25;;;19.20;80.20;;;;;;5013690;28;20124;-72
2022/07/15 01:50:41;;;;;;;4.85;2.90;;;19.10;80.70;;;;;;5022663;28;20057;-72
2022/07/15 01:53:11;;;;;;;4.25;2.78;;;19.00;80.70;;;;;;5022883;28;20111;-72
2022/07/15 01:55:43;;;;;;;4.32;2.92;;;19.00;80.70;;;;;;5013005;28;20037;-72
2022/07/15 01:58:15;;;;;;;5.38;3.30;;;19.00;80.70;;;;;;5013246;28;20042;-72
2022/07/15 02:00:49;;;;;;;5.43;3.22;;;18.90;81.60;;;;;;5022686;28;20045;-72
2022/07/15 02:03:15;;;;;;;4.22;2.97;;;18.80;82.30;;;;;;5010067;28;20055;-72
2022/07/15 02:05:49;;;;;;;;;;;18.70;82.40;;;;;;5021410;28;20043;-72
2022/07/15 02:08:24;;;;;;;3.47;2.80;;;18.70;82.10;;;;;;5025148;28;19976;-72
2022/07/15 02:10:56;;;;;;;6.43;2.80;;;18.70;82.50;;;;;;5012603;28;20073;-72
2022/07/15 02:13:28;;;;;;;5.47;3.10;;;18.60;83.20;;;;;;5025647;28;20140;-72
2022/07/15 02:16:00;;;;;;;3.65;2.90;;;18.60;83.70;;;;;;5017963;28;20126;-72
2022/07/15 02:18:34;;;;;;;;;;;18.50;83.70;;;;;;5012288;28;20042;-72
2022/07/15 02:21:06;;;;;;;3.63;2.60;;;18.60;80.60;;;;;;5002187;28;19968;-72
2022/07/15 02:23:38;;;;;;;3.17;2.80;;;18.50;80.70;;;;;;5020573;28;20140;-72
2022/07/15 02:26:10;;;;;;;5.25;3.35;;;18.60;82.20;;;;;;5030959;28;20501;-72
2022/07/15 02:28:43;;;;;;;;;;;18.60;82.60;;;;;;5012928;28;20053;-72
2022/07/15 02:31:11;;;;;;;3.83;2.83;;;18.50;83.00;;;;;;5012509;28;20031;-72
2022/07/15 02:33:43;;;;;;;5.55;2.80;;;18.60;83.10;;;;;;5010527;28;20079;-72
2022/07/15 02:36:15;;;;;;;4.80;2.90;;;18.60;82.90;;;;;;5014847;28;20048;-72
2022/07/15 02:38:47;;;;;;;4.55;2.50;;;18.60;82.90;;;;;;5021701;28;20459;-72
2022/07/15 02:41:19;;;;;;;4.30;2.72;;;18.60;82.30;;;;;;5030601;28;20738;-72
2022/07/15 02:43:52;;;;;;;8.10;3.42;;;18.60;81.70;;;;;;5015304;28;20505;-72
2022/07/15 02:46:24;;;;;;;5.93;2.47;;;18.60;81.40;;;;;;5011118;28;20477;-72
2022/07/15 02:48:56;;;;;;;3.97;2.10;;;18.60;78.90;;;;;;5017860;28;20048;-72
2022/07/15 02:51:28;;;;;;;2.20;1.88;;;18.60;77.60;;;;;;5012459;28;20049;-72
2022/07/15 02:54:00;;;;;;;3.47;2.17;;;18.60;77.10;;;;;;5003163;28;20038;-72
2022/07/15 02:56:33;;;;;;;5.78;2.90;;;18.70;77.80;;;;;;5014008;28;20037;-72
2022/07/15 02:59:05;;;;;;;4.78;2.40;;;18.70;78.00;;;;;;5021246;28;20445;-72
2022/07/15 03:01:31;;;;;;;3.13;2.33;;;18.70;78.50;;;;;;5008888;28;20053;-72
2022/07/15 03:04:00;;;;;;;3.63;3.13;;;18.70;78.40;;;;;;5014969;28;20033;-72
2022/07/15 03:06:33;;;;;;;4.70;2.90;;;18.70;78.70;;;;;;5012696;28;20038;-72
2022/07/15 03:09:06;;;;;;;8.27;3.45;;;18.60;79.80;;;;;;5012672;28;20041;-72
2022/07/15 03:11:38;;;;;;;3.28;2.67;;;18.50;80.70;;;;;;4993938;28;20042;-72
2022/07/15 03:14:10;;;;;;;4.07;2.90;;;18.50;81.60;;;;;;5009499;28;20076;-72
2022/07/15 03:16:41;;;;;;;3.80;2.80;;;18.40;81.70;;;;;;5015960;28;20029;-72
2022/07/15 03:19:13;;;;;;;3.50;2.75;;;18.30;81.90;;;;;;5012990;28;20037;-72
2022/07/15 03:21:48;;;;;;;10.43;4.05;;;18.30;82.30;;;;;;5015658;28;20057;-72
2022/07/15 03:24:22;;;;;;;4.57;2.60;;;18.20;82.10;;;;;;5040382;23;20405;-73
2022/07/15 03:26:49;;;;;;;6.22;2.95;;;18.10;82.40;;;;;;4994121;28;20123;-73
2022/07/15 03:29:21;;;;;;;4.00;2.60;;;18.00;83.90;;;;;;5003124;28;20097;-73
2022/07/15 03:31:53;;;;;;;3.95;2.30;;;18.00;84.70;;;;;;4996181;28;20077;-72
2022/07/15 03:34:25;;;;;;;4.43;2.60;;;17.90;85.00;;;;;;4997309;28;20092;-72
2022/07/15 03:36:59;;;;;;;6.38;2.78;;;17.80;85.10;;;;;;4987943;28;20533;-73
2022/07/15 03:39:30;;;;;;;4.75;2.88;;;17.80;85.30;;;;;;5005726;28;20596;-72
2022/07/15 03:42:05;;;;;;;4.95;2.78;;;17.80;85.30;;;;;;5003407;28;20053;-72
2022/07/15 03:44:40;;;;;;;5.03;2.90;;;17.70;85.30;;;;;;5016522;28;20049;-73
2022/07/15 03:47:12;;;;;;;6.22;2.50;;;17.70;85.90;;;;;;5013848;28;20488;-72
2022/07/15 03:49:43;;;;;;;7.57;2.40;;;17.70;85.80;;;;;;4998600;28;20049;-72
2022/07/15 03:52:15;;;;;;;8.90;2.85;;;17.70;85.70;;;;;;5025687;28;20104;-73
2022/07/15 03:54:47;;;;;;;6.82;2.47;;;17.70;85.70;;;;;;5017894;28;20084;-73
2022/07/15 03:57:20;;;;;;;4.68;2.70;;;17.60;85.60;;;;;;5020099;28;20041;-73
2022/07/15 03:59:51;;;;;;;8.77;2.60;;;17.60;86.10;;;;;;5004712;28;20405;-72
2022/07/15 04:02:23;;;;;;;5.22;2.72;;;17.60;86.50;;;;;;5006153;28;20043;-71
2022/07/15 04:04:57;;;;;;;4.93;2.58;;;17.60;86.80;;;;;;4989050;28;20065;-73
2022/07/15 04:07:29;;;;;;;5.18;2.75;;;17.60;86.70;;;;;;5006623;28;20037;-73
2022/07/15 04:10:01;;;;;;;4.25;2.35;;;17.60;86.10;;;;;;4998613;28;20054;-72
2022/07/15 04:12:32;;;;;;;6.18;2.67;;;17.60;86.00;;;;;;4994978;28;20125;-73
2022/07/15 04:15:05;;;;;;;4.50;2.22;;;17.60;86.10;;;;;;4999675;28;20041;-74
2022/07/15 04:17:37;;;;;;;6.35;3.20;;;17.70;86.30;;;;;;5021486;28;20046;-71
2022/07/15 04:20:09;;;;;;;4.15;2.42;;;17.70;86.30;;;;;;5003276;28;20087;-72
2022/07/15 04:22:48;;;;;;;4.10;2.10;;;17.70;85.80;;;;;;5019297;28;20045;-72
2022/07/15 04:25:21;;;;;;;5.13;2.58;;;17.70;85.10;;;;;;5000457;28;20045;-72
2022/07/15 04:27:53;;;;;;;8.43;2.80;;;17.80;84.70;;;;;;4998009;28;20041;-72
2022/07/15 04:30:28;;;;;;;4.05;2.38;;;17.80;84.50;;;;;;5014011;28;20053;-72
2022/07/15 04:33:01;;;;;;;3.30;2.30;;;17.90;83.60;;;;;;5000836;28;20130;-73
2022/07/15 04:35:38;;;;;;;4.28;2.30;;;17.90;82.30;;;;;;5023584;28;20037;-72
2022/07/15 04:38:10;;;;;;;5.37;2.60;;;17.90;81.90;;;;;;5021928;28;20046;-72
2022/07/15 04:40:43;;;;;;;3.95;2.05;;;18.00;81.80;;;;;;4995034;28;20067;-72
2022/07/15 04:43:16;;;;;;;5.18;2.33;;;18.10;81.70;;;;;;5008762;28;20033;-72
2022/07/15 04:45:48;;;;;;;9.40;3.13;;;18.10;81.60;;;;;;5021328;28;20076;-73
2022/07/15 04:51:11;;;;;;;12.18;4.00;;;18.20;79.90;;;;;;5025532;28;20037;-72
2022/07/15 04:53:43;;;;;;;8.18;3.35;;;18.20;79.90;;;;;;5009788;28;20091;-72
2022/07/15 04:56:15;;;;;;;13.75;3.60;;;18.20;80.40;;;;;;5022080;28;20133;-72
2022/07/15 04:58:56;;;;;;;7.40;3.70;;;18.20;80.80;;;;;;5005786;28;20068;-73
2022/07/15 05:01:28;;;;;;;10.32;3.83;;;18.20;81.30;;;;;;5006975;28;20041;-72
2022/07/15 05:04:01;;;;;;;5.68;3.40;;;18.10;81.70;;;;;;4999649;28;20037;-72
2022/07/15 05:06:34;;;;;;;8.65;3.30;;;18.20;82.90;;;;;;5019674;28;20046;-72
2022/07/15 05:09:06;;;;;;;11.68;4.85;;;18.10;83.20;;;;;;4996875;28;20050;-72
2022/07/15 05:11:38;;;;;;;9.90;4.07;;;18.00;82.00;;;;;;5001776;28;20045;-72
2022/07/15 05:14:10;;;;;;;10.18;3.80;;;18.00;81.70;;;;;;4998299;28;20045;-72
2022/07/15 05:16:42;;;;;;;7.53;3.85;;;18.00;81.90;;;;;;5025886;28;20128;-72
2022/07/15 05:19:13;;;;;;;5.72;3.00;;;17.90;82.80;;;;;;5017865;28;20045;-72
2022/07/15 05:21:46;;;;;;;7.13;3.15;;;18.00;83.00;;;;;;5021883;28;20050;-72
2022/07/15 05:24:19;;;;;;;8.50;3.08;;;17.90;83.30;;;;;;5001777;28;20041;-72
2022/07/15 05:26:51;;;;;;;5.38;3.00;;;17.90;83.50;;;;;;5008717;28;20061;-72
2022/07/15 05:29:23;;;;;;;6.97;3.05;;;18.00;83.40;;;;;;5030895;28;20162;-72
2022/07/15 05:31:55;;;;;;;8.00;3.10;;;18.00;83.30;;;;;;5015304;28;20050;-72
2022/07/15 05:34:28;;;;;;;5.13;3.13;;;18.10;83.20;;;;;;5003946;28;20052;-72
2022/07/15 05:37:00;;;;;;;9.38;3.60;;;18.10;83.50;;;;;;5015249;28;20041;-72
2022/07/15 05:39:34;;;;;;;8.95;3.80;;;18.10;83.40;;;;;;5007578;28;20054;-73
2022/07/15 05:42:08;;;;;;;9.13;3.38;;;18.20;83.40;;;;;;5006037;28;20045;-72
2022/07/15 05:44:40;;;;;;;6.05;2.92;;;18.20;83.30;;;;;;5007690;28;20069;-72
2022/07/15 05:47:20;;;;;;;6.93;3.40;;;18.20;82.70;;;;;;5002589;28;20042;-72
2022/07/15 05:49:52;;;;;;;9.82;3.42;;;18.20;83.20;;;;;;5025079;28;20064;-72
2022/07/15 05:52:25;;;;;;;5.63;3.08;;;18.20;83.40;;;;;;5020659;28;20046;-72
2022/07/15 05:55:01;;;;;;;3.70;2.90;;;18.20;83.50;;;;;;5001743;28;20056;-72
2022/07/15 05:57:33;;;;;;;5.18;3.13;;;18.20;83.20;;;;;;5009946;28;20030;-73
2022/07/15 06:00:08;;;;;;;4.97;3.03;;;18.20;83.60;;;;;;5028637;28;20061;-73
2022/07/15 06:02:40;;;;;;;8.18;3.28;;;18.30;83.30;;;;;;5007016;28;20058;-72
2022/07/15 06:05:20;;;;;;;6.05;3.08;;;18.40;82.70;;;;;;4997649;28;20552;-73
2022/07/15 06:07:56;;;;;;;5.30;3.22;;;18.40;82.60;;;;;;5009202;28;20041;-72
2022/07/15 06:10:32;;;;;;;6.40;2.80;;;18.40;82.60;;;;;;5004255;28;20049;-73
2022/07/15 06:13:04;;;;;;;4.45;2.38;;;18.50;80.90;;;;;;5023204;28;20066;-72
2022/07/15 06:15:37;;;;;;;4.03;2.17;;;18.50;80.10;;;;;;5023384;28;20065;-72
2022/07/15 06:18:14;;;;;;;3.72;2.40;;;18.60;79.40;;;;;;5012354;28;20044;-72
2022/07/15 06:20:48;;;;;;;7.38;2.30;;;18.60;79.50;;;;;;5018968;28;20052;-73
2022/07/15 06:23:20;;;;;;;5.78;2.40;;;18.70;78.80;;;;;;5001822;28;20041;-72
2022/07/15 06:25:51;;;;;;;7.47;2.20;;;18.80;78.20;;;;;;5023208;28;20044;-72
2022/07/15 06:28:24;;;;;;;4.68;2.47;;;18.80;77.90;;;;;;5005346;28;20045;-73
2022/07/15 06:30:56;;;;;;;5.63;2.00;;;18.80;78.20;;;;;;5032236;28;20048;-72
2022/07/15 06:33:32;;;;;;;4.20;1.90;;;18.90;78.00;;;;;;5025603;28;20061;-72
2022/07/15 06:36:04;;;;;;;7.47;2.30;;;18.90;78.00;;;;;;5020289;28;20061;-72
2022/07/15 06:38:36;;;;;;;4.88;1.83;;;18.90;77.70;;;;;;5020059;28;20038;-72
2022/07/15 06:41:07;;;;;;;4.05;1.88;;;19.00;77.90;;;;;;5034649;28;20049;-73
2022/07/15 06:43:39;;;;;;;3.92;1.73;;;19.10;77.00;;;;;;5027112;28;20062;-72
2022/07/15 06:46:25;;;;;;;5.85;2.00;;;19.20;76.30;;;;;;5026808;28;20111;-72
2022/07/15 06:48:56;;;;;;;4.53;2.10;;;19.20;75.50;;;;;;5009294;28;20061;-73
2022/07/15 06:51:29;;;;;;;4.25;1.80;;;19.30;75.60;;;;;;5027974;28;20050;-72
2022/07/15 06:54:02;;;;;;;9.27;2.40;;;19.30;76.40;;;;;;5023077;28;20820;-72
2022/07/15 06:56:36;;;;;;;5.85;2.50;;;19.30;76.30;;;;;;5020345;28;20874;-73
2022/07/15 06:59:08;;;;;;;4.18;1.65;;;19.40;75.10;;;;;;5030432;28;20520;-72
2022/07/15 07:01:40;;;;;;;3.80;1.80;;;19.50;76.10;;;;;;5023456;28;20069;-72
2022/07/15 07:04:13;;;;;;;6.97;1.92;;;19.50;73.50;;;;;;5018151;28;20045;-72
2022/07/15 07:06:45;;;;;;;3.10;1.63;;;19.50;74.60;;;;;;5031975;28;20494;-72
2022/07/15 07:09:17;;;;;;;5.38;1.70;;;19.70;73.60;;;;;;5031499;28;20083;-73
2022/07/15 07:11:51;;;;;;;7.45;2.08;;;19.70;73.80;;;;;;5016246;28;20136;-72
2022/07/15 07:14:23;;;;;;;2.38;1.50;;;19.80;72.80;;;;;;5028520;28;20033;-73
2022/07/15 07:16:54;;;;;;;5.30;2.30;;;19.80;73.00;;;;;;5037498;28;20053;-72
2022/07/15 07:19:26;;;;;;;2.97;1.70;;;19.90;73.90;;;;;;5034333;28;20513;-73
2022/07/15 07:21:58;;;;;;;6.00;1.90;;;19.90;73.70;;;;;;5038230;28;20124;-72
2022/07/15 07:24:30;;;;;;;5.88;1.90;;;20.00;73.80;;;;;;5028041;28;20048;-72
2022/07/15 07:27:01;;;;;;;5.57;1.65;;;20.10;72.60;;;;;;5029980;28;20037;-73
2022/07/15 07:29:33;;;;;;;3.05;1.50;;;20.20;72.30;;;;;;5031908;28;20150;-73
2022/07/15 07:32:05;;;;;;;5.03;2.00;;;20.20;72.40;;;;;;5037222;28;20049;-72
2022/07/15 07:34:37;;;;;;;4.93;2.10;;;20.30;72.60;;;;;;5025895;28;20493;-73
2022/07/15 07:37:09;;;;;;;3.35;1.80;;;20.40;72.20;;;;;;5039156;28;20049;-73
2022/07/15 07:39:41;;;;;;;4.97;2.15;;;20.40;72.70;;;;;;5038161;28;20038;-72
2022/07/15 07:42:13;;;;;;;4.10;1.70;;;20.60;72.60;;;;;;5033563;28;20041;-72
2022/07/15 07:44:45;;;;;;;4.78;1.70;;;20.60;70.90;;;;;;5032325;28;20041;-72
2022/07/15 07:47:17;;;;;;;4.43;1.63;;;20.70;70.70;;;;;;5031619;28;20037;-73
2022/07/15 07:49:44;;;;;;;4.85;1.70;;;20.80;71.20;;;;;;5035967;28;20037;-72
2022/07/15 07:52:16;;;;;;;4.72;2.17;;;20.80;71.40;;;;;;5035499;28;20042;-72
2022/07/15 07:54:47;;;;;;;3.78;2.00;;;21.00;72.10;;;;;;5034859;28;20119;-72
2022/07/15 07:57:19;;;;;;;5.25;1.85;;;21.10;70.40;;;;;;5038656;28;20122;-73
2022/07/15 07:59:51;;;;;;;6.47;2.10;;;21.10;70.30;;;;;;5038233;28;20460;-72
2022/07/15 08:02:23;;;;;;;5.30;1.75;;;21.10;70.40;;;;;;5034904;28;20493;-72
2022/07/15 08:04:55;;;;;;;6.97;2.28;;;21.10;70.80;;;;;;5028429;28;20052;-72
2022/07/15 08:07:29;;;;;;;6.32;2.10;;;21.20;70.90;;;;;;5029554;28;20038;-72
2022/07/15 08:10:00;;;;;;;5.70;2.83;;;21.40;69.40;;;;;;5028227;28;20041;-72
2022/07/15 08:12:33;;;;;;;3.00;1.77;;;21.40;69.00;;;;;;5034227;28;20580;-73
2022/07/15 08:15:08;;;;;;;6.32;3.10;;;21.40;69.80;;;;;;5034580;28;20045;-73
2022/07/15 08:17:40;;;;;;;4.97;2.20;;;21.40;68.10;;;;;;5040042;28;20048;-73
2022/07/15 08:20:13;;;;;;;9.55;3.80;;;21.40;68.60;;;;;;5035968;28;20056;-73
2022/07/15 08:22:45;;;;;;;5.38;2.90;;;21.60;68.80;;;;;;5017081;28;20128;-72
2022/07/15 08:25:16;;;;;;;7.43;3.88;;;21.60;68.50;;;;;;5026063;28;20052;-73
2022/07/15 08:27:48;;;;;;;4.68;2.75;;;21.70;68.80;;;;;;5031310;28;20037;-72
2022/07/15 08:30:20;;;;;;;5.20;2.10;;;21.80;68.40;;;;;;5035779;28;20038;-72
2022/07/15 08:32:52;;;;;;;5.00;1.95;;;21.90;67.20;;;;;;5036319;28;20068;-73
2022/07/15 08:35:25;;;;;;;6.20;3.53;;;22.00;67.80;;;;;;5033476;28;20045;-73
2022/07/15 08:37:57;;;;;;;4.93;2.15;;;22.00;67.80;;;;;;5018261;28;20046;-72
2022/07/15 08:40:29;;;;;;;5.07;2.27;;;22.00;67.10;;;;;;5038271;28;20604;-70
2022/07/15 08:43:02;;;;;;;12.82;2.78;;;22.00;68.70;;;;;;5035086;28;20041;-72
2022/07/15 08:45:36;;;;;;;8.00;2.70;;;22.10;67.70;;;;;;5026950;28;20038;-70
2022/07/15 08:48:05;;;;;;;5.22;2.10;;;22.30;66.30;;;;;;5033615;28;20073;-70
2022/07/15 08:50:37;;;;;;;5.88;2.30;;;22.10;66.30;;;;;;5041698;28;20044;-70
2022/07/15 08:53:09;;;;;;;7.13;2.05;;;22.30;67.40;;;;;;5032349;28;20041;-71
2022/07/15 08:55:41;;;;;;;4.63;2.53;;;22.40;67.00;;;;;;5033577;28;20096;-70
2022/07/15 08:58:09;;;;;;;5.32;2.00;;;22.50;67.20;;;;;;5037727;28;20053;-70
2022/07/15 09:00:41;;;;;;;5.30;2.65;;;22.50;66.60;;;;;;5034412;28;20041;-71
2022/07/15 09:03:13;;;;;;;5.90;2.30;;;22.70;65.90;;;;;;5033669;28;20051;-71
2022/07/15 09:05:45;;;;;;;6.35;2.75;;;22.80;66.20;;;;;;5030186;28;20401;-71
2022/07/15 09:08:14;;;;;;;4.45;2.25;;;22.90;65.20;;;;;;5029979;28;20425;-70
2022/07/15 09:10:48;;;;;;;6.65;2.50;;;23.00;64.30;;;;;;5037467;28;20124;-71
2022/07/15 09:13:26;;;;;;;4.00;1.75;;;23.10;64.10;;;;;;5019944;28;20051;-70
2022/07/15 09:16:10;;;;;;;9.63;3.65;;;23.10;63.00;;;;;;5035421;28;20040;-71
2022/07/15 09:18:43;;;;;;;6.57;2.55;;;23.10;63.50;;;;;;5037111;28;20489;-70
2022/07/15 09:21:24;;;;;;;8.10;2.47;;;23.20;64.50;;;;;;5036445;28;20040;-70
2022/07/15 09:24:14;;;;;;;10.73;2.47;;;23.40;63.80;;;;;;5034077;28;20030;-71
2022/07/15 09:26:46;;;;;;;5.00;2.15;;;23.60;62.70;;;;;;5017990;28;20401;-70
2022/07/15 09:35:03;;;;;;;9.23;2.40;;;23.70;61.20;;;;;;5030659;28;20122;-70
2022/07/15 09:37:55;;;;;;;7.63;2.15;;;23.70;60.80;;;;;;5034065;28;20051;-71
2022/07/15 09:40:27;;;;;;;6.78;2.30;;;23.80;60.30;;;;;;5035949;28;20033;-71
2022/07/15 09:43:06;;;;;;;3.88;2.30;;;23.90;60.50;;;;;;5037711;28;20041;-70
2022/07/15 09:45:38;;;;;;;5.78;2.47;;;24.00;59.40;;;;;;5030242;28;20052;-70
2022/07/15 09:48:14;;;;;;;6.43;3.13;;;24.00;59.00;;;;;;5030486;28;20088;-70
2022/07/15 09:50:46;;;;;;;3.22;2.45;;;24.00;59.10;;;;;;5018422;28;20034;-71
2022/07/15 09:53:18;;;;;;;5.17;3.10;;;24.00;59.60;;;;;;5037172;28;20045;-70
2022/07/15 09:55:51;;;;;;;2.45;2.08;;;24.10;58.90;;;;;;5033369;28;20044;-71
2022/07/15 09:58:20;;;;;;;3.67;2.85;;;24.30;59.50;;;;;;5035385;28;20520;-71
2022/07/15 10:00:52;;;;;;;4.78;2.40;;;24.50;59.30;;;;;;5014734;28;20466;-71
2022/07/15 10:03:24;;;;;;;4.88;2.65;;;24.50;57.70;;;;;;5035432;28;20047;-70
2022/07/15 10:05:56;;;;;;;7.32;3.20;;;24.40;58.40;;;;;;5011241;28;20405;-70
2022/07/15 10:08:34;;;;;;;4.80;2.33;;;24.30;57.90;;;;;;5039331;28;20096;-70
2022/07/15 10:11:10;;;;;;;5.10;2.53;;;24.30;57.80;;;;;;5032998;28;20049;-70
2022/07/15 10:14:26;;;;;;;4.35;2.97;;;24.20;58.00;;;;;;5028422;28;20037;-70
2022/07/15 10:17:07;;;;;;;5.25;2.90;;;24.20;57.60;;;;;;4998352;28;20084;-71
2022/07/15 10:20:14;;;;;;;8.02;3.97;;;24.30;58.20;;;;;;5037992;28;20656;-70
2022/07/15 10:23:12;;;;;;;4.03;3.03;;;24.30;58.60;;;;;;5037249;28;20033;-70
2022/07/15 10:25:56;;;;;;;6.55;2.90;;;24.50;58.70;;;;;;5027260;28;20544;-70
2022/07/15 10:28:52;;;;;;;6.93;4.65;;;24.40;57.70;;;;;;5022354;28;20723;-70
2022/07/15 10:31:26;;;;;;;7.65;3.25;;;24.30;59.00;;;;;;5035928;28;20056;-70
2022/07/15 10:34:04;;;;;;;5.30;2.97;;;24.30;58.50;;;;;;5031861;28;20046;-70
2022/07/15 10:36:40;;;;;;;6.60;3.28;;;24.20;59.50;;;;;;5037518;28;20029;-70
2022/07/15 10:39:13;;;;;;;4.00;2.38;;;24.30;59.30;;;;;;5037183;28;20033;-70
2022/07/15 10:42:03;;;;;;;5.53;3.38;;;24.50;58.30;;;;;;5039100;28;20042;-70
2022/07/15 10:44:47;;;;;;;4.45;2.78;;;24.80;57.70;;;;;;5028299;28;20041;-70
2022/07/15 10:47:20;;;;;;;5.13;2.72;;;25.00;57.50;;;;;;5032344;28;20045;-70
2022/07/15 10:49:52;;;;;;;6.35;3.38;;;24.90;56.30;;;;;;5039975;28;20444;-71
2022/07/15 10:52:26;;;;;;;3.40;2.30;;;24.90;57.00;;;;;;5034812;28;20574;-70
2022/07/15 10:55:04;;;;;;;8.23;2.85;;;25.10;56.60;;;;;;5027706;28;20124;-69
2022/07/15 10:57:42;;;;;;;5.68;2.10;;;25.40;56.70;;;;;;5033301;28;20071;-70
2022/07/15 11:00:20;;;;;;;4.22;2.42;;;25.40;56.40;;;;;;5018599;28;20124;-71
2022/07/15 11:03:13;;;;;;;7.32;3.60;;;25.60;57.00;;;;;;5020874;28;20136;-70
2022/07/15 11:05:48;;;;;;;8.13;3.70;;;25.80;56.80;;;;;;5002287;28;20070;-70
2022/07/15 11:08:36;;;;;;;3.90;2.70;;;25.90;56.50;;;;;;5034860;28;20053;-70
2022/07/15 11:11:14;;;;;;;3.28;2.70;;;25.70;55.40;;;;;;5045964;28;20401;-70
2022/07/15 11:13:48;;;;;;;4.93;2.55;;;25.20;55.90;;;;;;5027826;28;20043;-70
2022/07/15 11:16:21;;;;;;;5.80;3.20;;;25.20;56.60;;;;;;5034837;28;20044;-71
2022/07/15 11:18:55;;;;;;;6.13;2.80;;;25.40;57.00;;;;;;5015245;28;20037;-70
2022/07/15 11:21:26;;;;;;;6.00;3.15;;;25.50;55.90;;;;;;5037862;28;20045;-71
2022/07/15 11:23:59;;;;;;;6.20;3.33;;;25.40;56.40;;;;;;5031839;28;20041;-71
2022/07/15 11:26:47;;;;;;;5.75;3.10;;;25.30;56.10;;;;;;5012506;28;20045;-70
2022/07/15 11:29:14;;;;;;;3.13;2.58;;;25.20;56.20;;;;;;5010529;28;20106;-71
2022/07/15 11:31:48;;;;;;;4.72;2.67;;;25.30;56.10;;;;;;5029708;28;20128;-71
2022/07/15 11:34:20;;;;;;;3.95;2.60;;;25.60;55.20;;;;;;5027426;28;20046;-71
2022/07/15 11:36:58;;;;;;;5.72;2.80;;;25.80;55.50;;;;;;5004526;28;20041;-71
2022/07/15 11:39:30;;;;;;;4.22;3.15;;;25.70;55.60;;;;;;5037945;28;20069;-71
2022/07/15 11:44:53;;;;;;;7.10;4.05;;;25.20;56.50;;;;;;5023058;28;20056;-71
2022/07/15 11:47:25;;;;;;;5.60;3.42;;;25.30;56.60;;;;;;5008457;28;20442;-71
2022/07/15 11:50:02;;;;;;;4.38;3.67;;;25.50;55.80;;;;;;5027975;28;20411;-71
2022/07/15 11:52:34;;;;;;;7.35;4.20;;;25.70;55.40;;;;;;5028052;28;20037;-71
2022/07/15 11:55:06;;;;;;;7.75;3.88;;;25.90;55.60;;;;;;5013157;28;20054;-71
2022/07/15 11:57:46;;;;;;;5.03;3.10;;;26.10;55.40;;;;;;5024430;28;20045;-70
2022/07/15 12:00:29;;;;;;;7.50;3.75;;;26.20;54.10;;;;;;5044166;28;20040;-71
2022/07/15 12:03:08;;;;;;;8.80;4.30;;;26.30;55.30;;;;;;5038022;28;20393;-71
2022/07/15 12:05:40;;;;;;;8.45;4.40;;;26.40;54.60;;;;;;5026980;28;20041;-71
2022/07/15 12:08:11;;;;;;;5.22;3.45;;;26.60;54.80;;;;;;5028713;28;20509;-71
2022/07/15 12:10:43;;;;;;;3.55;2.92;;;26.80;55.10;;;;;;5031674;28;20048;-71
2022/07/15 12:13:15;;;;;;;7.40;3.10;;;27.00;54.50;;;;;;5038343;28;20052;-71
2022/07/15 12:15:47;;;;;;;4.20;3.55;;;26.90;53.00;;;;;;5036938;28;20037;-71
2022/07/15 12:18:19;;;;;;;6.28;2.90;;;26.90;53.30;;;;;;5032547;28;20034;-71
2022/07/15 12:20:46;;;;;;;5.57;3.00;;;26.90;53.40;;;;;;5039335;28;20527;-71
2022/07/15 12:23:18;;;;;;;4.10;2.88;;;26.80;53.20;;;;;;5030811;28;20041;-71
2022/07/15 12:26:04;;;;;;;4.72;3.45;;;26.60;52.80;;;;;;5008304;28;20048;-71
2022/07/15 12:28:37;;;;;;;6.57;3.33;;;26.70;54.00;;;;;;5024795;28;20052;-71
2022/07/15 12:31:08;;;;;;;3.88;2.65;;;26.90;53.60;;;;;;5037495;28;20131;-70
2022/07/15 12:33:41;;;;;;;6.07;3.45;;;27.10;53.60;;;;;;5036510;28;20041;-71
2022/07/15 12:36:18;;;;;;;7.20;3.90;;;27.30;53.60;;;;;;5035082;28;20532;-71
2022/07/15 12:39:13;;;;;;;5.07;2.90;;;27.20;53.20;;;;;;5032838;28;20509;-71
2022/07/15 12:41:59;;;;;;;4.32;2.83;;;27.40;52.60;;;;;;5031457;28;20029;-71
2022/07/15 12:44:31;;;;;;;6.55;3.20;;;27.40;51.90;;;;;;5028401;28;20049;-71
2022/07/15 12:47:04;;;;;;;4.53;3.08;;;27.60;52.30;;;;;;5029119;28;20042;-71
2022/07/15 12:49:42;;;;;;;6.80;3.30;;;27.60;52.10;;;;;;5022993;28;20045;-71
2022/07/15 12:52:17;;;;;;;8.07;3.70;;;27.60;51.60;;;;;;5042348;28;20044;-71
2022/07/15 12:54:51;;;;;;;5.03;2.78;;;27.70;50.90;;;;;;5031618;28;20037;-71
2022/07/15 12:57:35;;;;;;;3.40;2.50;;;27.60;51.30;;;;;;5035125;28;20464;-71
2022/07/15 13:00:15;;;;;;;8.60;3.95;;;27.50;50.90;;;;;;5035379;28;20059;-71
2022/07/15 13:02:57;;;;;;;4.70;3.15;;;27.60;50.00;;;;;;5031891;28;20045;-71
2022/07/15 13:05:37;;;;;;;6.57;3.55;;;27.80;50.20;;;;;;5024712;28;20804;-70
2022/07/15 13:08:14;;;;;;;5.90;2.90;;;27.80;50.30;;;;;;5036467;28;20051;-70
2022/07/15 13:10:48;;;;;;;6.22;2.47;;;27.50;50.10;;;;;;5034109;28;20466;-71
2022/07/15 13:13:23;;;;;;;5.70;2.70;;;27.50;50.10;;;;;;5019342;28;20049;-71
2022/07/15 13:15:56;;;;;;;5.63;2.58;;;27.50;50.90;;;;;;5034490;28;20393;-70
2022/07/15 13:18:28;;;;;;;6.82;2.90;;;27.40;50.40;;;;;;5038920;28;20126;-71
2022/07/15 13:21:00;;;;;;;;;;;27.50;50.70;;;;;;5036556;28;20119;-71
2022/07/15 13:23:32;;;;;;;3.08;2.78;;;27.60;49.50;;;;;;5028202;28;19937;-71
2022/07/15 13:26:04;;;;;;;5.00;2.40;;;27.80;50.50;;;;;;5027420;28;20069;-70
2022/07/15 13:28:35;;;;;;;4.93;3.03;;;27.90;49.30;;;;;;5031067;28;20041;-70
2022/07/15 13:31:07;;;;;;;7.45;3.10;;;28.00;50.00;;;;;;5017273;28;20049;-70
2022/07/15 13:33:34;;;;;;;2.97;2.50;;;27.80;50.70;;;;;;5030030;28;20049;-70